This is the latest recevied weather packets stored in our database for station/object KC0QBU-13. If no packets are shown the sender has not sent any weather packets the latest 10 day(s).
| Time | Temp. | Humidity | Pressure | Rain* | Wind** | Luminosity | Snow |
|---|---|---|---|---|---|---|---|
| 1777881303 | 17.78° C | 53% | 1007.1 hPa | 0 mm | - | - | - |
| 1777879203 | 16.11° C | 61% | 1007.6 hPa | 0 mm | - | - | - |
| 1777874703 | 17.22° C | 56% | 1008.7 hPa | 0 mm | - | - | - |
| 1777874103 | 17.78° C | 57% | 1008.8 hPa | 0 mm | - | - | - |
| 1777873503 | 18.33° C | 54% | 1008.8 hPa | 0 mm | - | - | - |
| 1777873203 | 18.33° C | 54% | 1008.9 hPa | 0 mm | - | - | - |
| 1777872603 | 18.89° C | 53% | 1008.9 hPa | 0 mm | - | - | - |
| 1777872004 | 18.89° C | 53% | 1009 hPa | 0 mm | - | - | - |
| 1777871404 | 17.78° C | 60% | 1009.3 hPa | 0 mm | - | - | - |
| 1777869003 | 17.78° C | 57% | 1009.1 hPa | 0 mm | - | - | - |
| 1777868404 | 18.33° C | 57% | 1008.9 hPa | 0 mm | - | - | - |
| 1777867803 | 18.33° C | 55% | 1008.8 hPa | 0 mm | - | - | - |
| 1777864503 | 19.44° C | 55% | 1009.3 hPa | 0 mm | - | - | - |
| 1777864204 | 19.44° C | 54% | 1009.4 hPa | 0 mm | - | - | - |
| 1777863903 | 19.44° C | 53% | 1009.3 hPa | 0 mm | - | - | - |
| 1777863603 | 19.44° C | 53% | 1009.3 hPa | 0 mm | - | - | - |
| 1777862703 | 20° C | 51% | 1009.3 hPa | 0 mm | - | - | - |
| 1777862103 | 20.56° C | 49% | 1009.4 hPa | 0 mm | - | - | - |
| 1777860303 | 20.56° C | 50% | 1009.2 hPa | 0 mm | - | - | - |
| 1777855803 | 23.89° C | 39% | 1009.1 hPa | 0 mm | - | - | - |
| 1777855204 | 24.44° C | 36% | 1009.2 hPa | 0 mm | - | - | - |
| 1777854003 | 25° C | 34% | 1009.2 hPa | 0 mm | - | - | - |
| 1777853703 | 25.56° C | 32% | 1009.2 hPa | 0 mm | - | - | - |
| 1777851904 | 26.67° C | 29% | 1009.5 hPa | 0 mm | - | - | - |
| 1777849204 | 27.78° C | 25% | 1009.5 hPa | 0 mm | - | - | - |
* Rain latest hour (hover to see other rain measurements)
** Current wind speed in m/s (hover to see current wind gust speed)